Terminal Aerodrome Forecast
Issued by NWS Grand Forks, ND

Home | Current Version | Previous Version | Text Only | Print | Product List | Glossary On
Versions: 1 2 3 4 5 6 7 8 9 10 11 12 13 14 15 16
208
FTUS43 KFGF 212332
TAFFAR
TAF
KFAR 212332Z 2200/2224 32012KT P6SM FEW040
     FM221700 32010KT P6SM SKC
     FM222000 32015G23KT P6SM SKC=

USA.gov is the U.S. government's official web portal to all federal, state and local government web resources and services.